sensor_id;sensor_type;location;lat;lon;timestamp;P1;durP1;ratioP1;P2;durP2;ratioP2
8982;SDS011;20979;59.850;10.660;2023-09-19T00:00:33;9.10;;;6.57;;
8982;SDS011;20979;59.850;10.660;2023-09-19T00:03:01;11.57;;;6.03;;
8982;SDS011;20979;59.850;10.660;2023-09-19T00:05:41;12.27;;;6.07;;
8982;SDS011;20979;59.850;10.660;2023-09-19T00:08:11;15.07;;;6.60;;
8982;SDS011;20979;59.850;10.660;2023-09-19T00:10:40;11.43;;;5.93;;
8982;SDS011;20979;59.850;10.660;2023-09-19T00:15:45;11.93;;;6.03;;
8982;SDS011;20979;59.850;10.660;2023-09-19T00:18:27;12.27;;;6.07;;
8982;SDS011;20979;59.850;10.660;2023-09-19T00:20:57;9.70;;;5.37;;
8982;SDS011;20979;59.850;10.660;2023-09-19T00:23:26;9.47;;;5.77;;
8982;SDS011;20979;59.850;10.660;2023-09-19T00:26:05;10.03;;;5.23;;
8982;SDS011;20979;59.850;10.660;2023-09-19T00:28:33;9.87;;;5.50;;
8982;SDS011;20979;59.850;10.660;2023-09-19T00:31:01;10.40;;;5.60;;
8982;SDS011;20979;59.850;10.660;2023-09-19T00:33:42;12.17;;;5.50;;
8982;SDS011;20979;59.850;10.660;2023-09-19T00:36:15;14.27;;;5.90;;
8982;SDS011;20979;59.850;10.660;2023-09-19T00:38:45;8.60;;;5.30;;
8982;SDS011;20979;59.850;10.660;2023-09-19T00:41:12;11.33;;;4.83;;
8982;SDS011;20979;59.850;10.660;2023-09-19T00:43:40;10.40;;;5.07;;
8982;SDS011;20979;59.850;10.660;2023-09-19T00:46:11;9.07;;;5.13;;
8982;SDS011;20979;59.850;10.660;2023-09-19T00:48:40;9.03;;;4.70;;
8982;SDS011;20979;59.850;10.660;2023-09-19T00:51:10;9.67;;;5.30;;
8982;SDS011;20979;59.850;10.660;2023-09-19T00:53:47;10.03;;;4.70;;
8982;SDS011;20979;59.850;10.660;2023-09-19T00:56:15;10.77;;;4.83;;
8982;SDS011;20979;59.850;10.660;2023-09-19T00:58:43;11.83;;;5.00;;
8982;SDS011;20979;59.850;10.660;2023-09-19T01:01:31;10.33;;;5.10;;
8982;SDS011;20979;59.850;10.660;2023-09-19T01:04:05;11.37;;;4.97;;
8982;SDS011;20979;59.850;10.660;2023-09-19T01:06:38;8.70;;;4.73;;
8982;SDS011;20979;59.850;10.660;2023-09-19T01:09:12;9.10;;;4.73;;
8982;SDS011;20979;59.850;10.660;2023-09-19T01:11:40;6.03;;;4.47;;
8982;SDS011;20979;59.850;10.660;2023-09-19T01:14:15;6.57;;;4.27;;
8982;SDS011;20979;59.850;10.660;2023-09-19T01:17:03;8.37;;;4.43;;
8982;SDS011;20979;59.850;10.660;2023-09-19T01:22:25;5.70;;;4.13;;
8982;SDS011;20979;59.850;10.660;2023-09-19T01:25:19;7.37;;;4.63;;
8982;SDS011;20979;59.850;10.660;2023-09-19T01:27:53;7.77;;;4.20;;
8982;SDS011;20979;59.850;10.660;2023-09-19T01:30:27;8.17;;;4.50;;
8982;SDS011;20979;59.850;10.660;2023-09-19T01:32:59;7.40;;;3.53;;
8982;SDS011;20979;59.850;10.660;2023-09-19T01:35:26;10.13;;;4.10;;
8982;SDS011;20979;59.850;10.660;2023-09-19T01:37:54;10.10;;;4.77;;
8982;SDS011;20979;59.850;10.660;2023-09-19T01:40:41;6.97;;;4.17;;
8982;SDS011;20979;59.850;10.660;2023-09-19T01:43:12;25.53;;;5.27;;
8982;SDS011;20979;59.850;10.660;2023-09-19T01:45:45;6.03;;;3.90;;
8982;SDS011;20979;59.850;10.660;2023-09-19T01:48:16;8.77;;;4.80;;
8982;SDS011;20979;59.850;10.660;2023-09-19T01:50:55;19.73;;;4.73;;
8982;SDS011;20979;59.850;10.660;2023-09-19T01:53:23;47.07;;;5.53;;
8982;SDS011;20979;59.850;10.660;2023-09-19T01:55:53;38.67;;;5.13;;
8982;SDS011;20979;59.850;10.660;2023-09-19T01:58:21;36.53;;;4.30;;
8982;SDS011;20979;59.850;10.660;2023-09-19T02:00:53;8.63;;;3.73;;
8982;SDS011;20979;59.850;10.660;2023-09-19T02:03:22;4.77;;;3.60;;
8982;SDS011;20979;59.850;10.660;2023-09-19T02:05:51;6.27;;;4.07;;
8982;SDS011;20979;59.850;10.660;2023-09-19T02:08:19;7.57;;;3.90;;
8982;SDS011;20979;59.850;10.660;2023-09-19T02:10:49;5.33;;;3.87;;
8982;SDS011;20979;59.850;10.660;2023-09-19T02:13:18;5.63;;;3.77;;
8982;SDS011;20979;59.850;10.660;2023-09-19T02:15:46;5.07;;;3.70;;
8982;SDS011;20979;59.850;10.660;2023-09-19T02:18:15;5.00;;;3.60;;
8982;SDS011;20979;59.850;10.660;2023-09-19T02:20:43;4.77;;;3.10;;
8982;SDS011;20979;59.850;10.660;2023-09-19T02:25:54;6.20;;;3.53;;
8982;SDS011;20979;59.850;10.660;2023-09-19T02:28:23;4.20;;;3.40;;
8982;SDS011;20979;59.850;10.660;2023-09-19T02:30:55;28.77;;;4.70;;
8982;SDS011;20979;59.850;10.660;2023-09-19T02:33:30;5.03;;;3.83;;
8982;SDS011;20979;59.850;10.660;2023-09-19T02:36:07;6.00;;;4.70;;
8982;SDS011;20979;59.850;10.660;2023-09-19T02:38:35;5.63;;;4.17;;
8982;SDS011;20979;59.850;10.660;2023-09-19T02:41:03;76.50;;;7.07;;
8982;SDS011;20979;59.850;10.660;2023-09-19T02:43:31;16.23;;;5.07;;
8982;SDS011;20979;59.850;10.660;2023-09-19T02:46:01;8.17;;;4.57;;
8982;SDS011;20979;59.850;10.660;2023-09-19T02:48:40;6.40;;;4.50;;
8982;SDS011;20979;59.850;10.660;2023-09-19T02:51:25;7.40;;;4.87;;
8982;SDS011;20979;59.850;10.660;2023-09-19T02:53:53;8.47;;;5.60;;
8982;SDS011;20979;59.850;10.660;2023-09-19T02:56:22;8.67;;;5.30;;
8982;SDS011;20979;59.850;10.660;2023-09-19T02:59:02;7.67;;;4.93;;
8982;SDS011;20979;59.850;10.660;2023-09-19T03:01:35;9.03;;;5.20;;
8982;SDS011;20979;59.850;10.660;2023-09-19T03:04:05;6.03;;;4.57;;
8982;SDS011;20979;59.850;10.660;2023-09-19T03:06:40;8.27;;;5.50;;
8982;SDS011;20979;59.850;10.660;2023-09-19T03:09:07;13.37;;;4.30;;
8982;SDS011;20979;59.850;10.660;2023-09-19T03:11:39;20.63;;;4.77;;
8982;SDS011;20979;59.850;10.660;2023-09-19T03:14:08;7.77;;;5.57;;
8982;SDS011;20979;59.850;10.660;2023-09-19T03:19:50;6.77;;;4.67;;
8982;SDS011;20979;59.850;10.660;2023-09-19T03:22:31;16.13;;;5.03;;
8982;SDS011;20979;59.850;10.660;2023-09-19T03:24:59;47.23;;;7.47;;
8982;SDS011;20979;59.850;10.660;2023-09-19T03:27:27;21.30;;;4.30;;
8982;SDS011;20979;59.850;10.660;2023-09-19T03:30:08;51.03;;;5.43;;
8982;SDS011;20979;59.850;10.660;2023-09-19T03:32:43;43.50;;;5.97;;
8982;SDS011;20979;59.850;10.660;2023-09-19T03:35:12;74.57;;;7.97;;
8982;SDS011;20979;59.850;10.660;2023-09-19T03:38:02;12.87;;;4.73;;
8982;SDS011;20979;59.850;10.660;2023-09-19T03:40:30;20.53;;;6.03;;
8982;SDS011;20979;59.850;10.660;2023-09-19T03:43:00;95.73;;;8.63;;
8982;SDS011;20979;59.850;10.660;2023-09-19T03:45:28;18.30;;;4.33;;
8982;SDS011;20979;59.850;10.660;2023-09-19T03:48:09;23.87;;;5.80;;
8982;SDS011;20979;59.850;10.660;2023-09-19T03:50:41;7.70;;;4.80;;
8982;SDS011;20979;59.850;10.660;2023-09-19T03:53:09;12.27;;;5.43;;
8982;SDS011;20979;59.850;10.660;2023-09-19T04:01:48;16.90;;;6.70;;
8982;SDS011;20979;59.850;10.660;2023-09-19T04:04:21;8.73;;;5.60;;
8982;SDS011;20979;59.850;10.660;2023-09-19T04:09:48;38.63;;;7.20;;
8982;SDS011;20979;59.850;10.660;2023-09-19T04:12:57;7.93;;;5.93;;
8982;SDS011;20979;59.850;10.660;2023-09-19T04:15:45;9.60;;;6.27;;
8982;SDS011;20979;59.850;10.660;2023-09-19T04:18:32;8.43;;;6.53;;
8982;SDS011;20979;59.850;10.660;2023-09-19T04:21:31;11.30;;;7.30;;
8982;SDS011;20979;59.850;10.660;2023-09-19T04:24:09;8.53;;;7.00;;
8982;SDS011;20979;59.850;10.660;2023-09-19T04:26:46;8.17;;;7.37;;
8982;SDS011;20979;59.850;10.660;2023-09-19T04:29:28;7.37;;;6.63;;
8982;SDS011;20979;59.850;10.660;2023-09-19T04:31:55;10.73;;;7.13;;
8982;SDS011;20979;59.850;10.660;2023-09-19T04:35:02;8.30;;;7.17;;
8982;SDS011;20979;59.850;10.660;2023-09-19T04:37:27;6.77;;;6.03;;
8982;SDS011;20979;59.850;10.660;2023-09-19T04:43:07;7.53;;;6.90;;
8982;SDS011;20979;59.850;10.660;2023-09-19T04:45:57;7.20;;;6.50;;
8982;SDS011;20979;59.850;10.660;2023-09-19T04:56:49;6.17;;;5.77;;
8982;SDS011;20979;59.850;10.660;2023-09-19T05:00:05;5.97;;;5.47;;
8982;SDS011;20979;59.850;10.660;2023-09-19T05:05:51;6.00;;;5.13;;
8982;SDS011;20979;59.850;10.660;2023-09-19T05:08:32;7.43;;;5.87;;
8982;SDS011;20979;59.850;10.660;2023-09-19T05:11:01;5.07;;;4.57;;
8982;SDS011;20979;59.850;10.660;2023-09-19T05:13:31;6.47;;;4.77;;
8982;SDS011;20979;59.850;10.660;2023-09-19T05:16:14;6.07;;;5.00;;
8982;SDS011;20979;59.850;10.660;2023-09-19T05:18:41;6.13;;;4.40;;
8982;SDS011;20979;59.850;10.660;2023-09-19T05:21:09;3.90;;;3.60;;
8982;SDS011;20979;59.850;10.660;2023-09-19T05:23:37;5.30;;;3.80;;
8982;SDS011;20979;59.850;10.660;2023-09-19T05:26:05;3.60;;;3.30;;
8982;SDS011;20979;59.850;10.660;2023-09-19T05:28:46;4.10;;;3.70;;
8982;SDS011;20979;59.850;10.660;2023-09-19T05:31:21;4.43;;;3.53;;
8982;SDS011;20979;59.850;10.660;2023-09-19T05:33:53;3.90;;;3.50;;
8982;SDS011;20979;59.850;10.660;2023-09-19T05:36:21;4.87;;;3.63;;
8982;SDS011;20979;59.850;10.660;2023-09-19T05:38:54;3.57;;;3.27;;
8982;SDS011;20979;59.850;10.660;2023-09-19T05:41:21;4.00;;;3.67;;
8982;SDS011;20979;59.850;10.660;2023-09-19T05:43:49;4.27;;;3.60;;
8982;SDS011;20979;59.850;10.660;2023-09-19T05:46:18;5.30;;;4.10;;
8982;SDS011;20979;59.850;10.660;2023-09-19T05:49:00;3.93;;;3.53;;
8982;SDS011;20979;59.850;10.660;2023-09-19T05:51:30;4.43;;;3.23;;
8982;SDS011;20979;59.850;10.660;2023-09-19T05:54:04;3.87;;;3.50;;
8982;SDS011;20979;59.850;10.660;2023-09-19T05:56:31;4.20;;;3.73;;
8982;SDS011;20979;59.850;10.660;2023-09-19T05:58:59;5.63;;;3.67;;
8982;SDS011;20979;59.850;10.660;2023-09-19T06:04:18;4.93;;;3.43;;
8982;SDS011;20979;59.850;10.660;2023-09-19T06:06:46;6.47;;;3.80;;
8982;SDS011;20979;59.850;10.660;2023-09-19T06:09:14;5.53;;;3.20;;
8982;SDS011;20979;59.850;10.660;2023-09-19T06:11:55;4.00;;;2.87;;
8982;SDS011;20979;59.850;10.660;2023-09-19T06:14:43;5.13;;;2.90;;
8982;SDS011;20979;59.850;10.660;2023-09-19T06:17:14;5.57;;;3.00;;
8982;SDS011;20979;59.850;10.660;2023-09-19T06:19:54;5.87;;;3.00;;
8982;SDS011;20979;59.850;10.660;2023-09-19T06:22:22;9.57;;;3.13;;
8982;SDS011;20979;59.850;10.660;2023-09-19T06:24:55;5.17;;;2.73;;
8982;SDS011;20979;59.850;10.660;2023-09-19T06:27:34;5.07;;;2.70;;
8982;SDS011;20979;59.850;10.660;2023-09-19T06:30:09;7.60;;;2.80;;
8982;SDS011;20979;59.850;10.660;2023-09-19T06:32:40;5.77;;;2.70;;
8982;SDS011;20979;59.850;10.660;2023-09-19T06:38:08;5.83;;;3.17;;
8982;SDS011;20979;59.850;10.660;2023-09-19T06:40:44;4.80;;;2.47;;
8982;SDS011;20979;59.850;10.660;2023-09-19T06:43:14;3.57;;;2.20;;
8982;SDS011;20979;59.850;10.660;2023-09-19T06:45:42;4.37;;;1.90;;
8982;SDS011;20979;59.850;10.660;2023-09-19T06:48:18;4.27;;;1.97;;
8982;SDS011;20979;59.850;10.660;2023-09-19T06:50:50;2.53;;;1.70;;
8982;SDS011;20979;59.850;10.660;2023-09-19T06:53:29;2.27;;;1.43;;
8982;SDS011;20979;59.850;10.660;2023-09-19T06:56:00;2.67;;;1.33;;
8982;SDS011;20979;59.850;10.660;2023-09-19T06:58:28;2.63;;;1.07;;
8982;SDS011;20979;59.850;10.660;2023-09-19T07:01:01;1.73;;;1.10;;
8982;SDS011;20979;59.850;10.660;2023-09-19T07:03:29;1.53;;;0.93;;
8982;SDS011;20979;59.850;10.660;2023-09-19T07:06:08;2.03;;;1.10;;
8982;SDS011;20979;59.850;10.660;2023-09-19T07:08:49;1.87;;;1.10;;
8982;SDS011;20979;59.850;10.660;2023-09-19T07:11:33;3.07;;;1.23;;
8982;SDS011;20979;59.850;10.660;2023-09-19T07:14:11;3.07;;;1.20;;
8982;SDS011;20979;59.850;10.660;2023-09-19T07:16:51;4.37;;;1.50;;
8982;SDS011;20979;59.850;10.660;2023-09-19T07:19:21;2.63;;;1.53;;
8982;SDS011;20979;59.850;10.660;2023-09-19T07:21:54;2.20;;;1.30;;
8982;SDS011;20979;59.850;10.660;2023-09-19T07:24:23;2.20;;;1.50;;
8982;SDS011;20979;59.850;10.660;2023-09-19T07:26:58;3.10;;;1.50;;
8982;SDS011;20979;59.850;10.660;2023-09-19T07:29:30;2.87;;;1.40;;
8982;SDS011;20979;59.850;10.660;2023-09-19T07:31:58;3.37;;;1.27;;
8982;SDS011;20979;59.850;10.660;2023-09-19T07:34:42;3.00;;;1.40;;
8982;SDS011;20979;59.850;10.660;2023-09-19T07:37:10;3.13;;;1.40;;
8982;SDS011;20979;59.850;10.660;2023-09-19T07:39:39;5.03;;;1.83;;
8982;SDS011;20979;59.850;10.660;2023-09-19T07:42:21;4.30;;;1.80;;
8982;SDS011;20979;59.850;10.660;2023-09-19T07:44:51;4.97;;;1.60;;
8982;SDS011;20979;59.850;10.660;2023-09-19T07:47:31;4.93;;;1.43;;
8982;SDS011;20979;59.850;10.660;2023-09-19T07:50:06;6.87;;;1.70;;
8982;SDS011;20979;59.850;10.660;2023-09-19T07:52:40;4.37;;;1.63;;
8982;SDS011;20979;59.850;10.660;2023-09-19T07:55:23;6.20;;;1.77;;
8982;SDS011;20979;59.850;10.660;2023-09-19T07:57:56;7.40;;;1.90;;
8982;SDS011;20979;59.850;10.660;2023-09-19T08:00:40;5.20;;;1.90;;
8982;SDS011;20979;59.850;10.660;2023-09-19T08:03:07;3.13;;;1.10;;
8982;SDS011;20979;59.850;10.660;2023-09-19T08:05:55;4.90;;;1.60;;
8982;SDS011;20979;59.850;10.660;2023-09-19T08:08:24;2.67;;;1.27;;
8982;SDS011;20979;59.850;10.660;2023-09-19T08:11:01;4.87;;;1.93;;
8982;SDS011;20979;59.850;10.660;2023-09-19T08:13:39;5.60;;;1.43;;
8982;SDS011;20979;59.850;10.660;2023-09-19T08:16:09;3.97;;;1.70;;
8982;SDS011;20979;59.850;10.660;2023-09-19T08:18:39;2.63;;;1.50;;
8982;SDS011;20979;59.850;10.660;2023-09-19T08:21:11;2.33;;;1.30;;
8982;SDS011;20979;59.850;10.660;2023-09-19T08:23:45;4.37;;;1.53;;
8982;SDS011;20979;59.850;10.660;2023-09-19T08:26:15;3.90;;;1.50;;
8982;SDS011;20979;59.850;10.660;2023-09-19T08:28:46;3.90;;;1.30;;
8982;SDS011;20979;59.850;10.660;2023-09-19T08:31:25;2.87;;;1.30;;
8982;SDS011;20979;59.850;10.660;2023-09-19T08:33:53;2.97;;;1.13;;
8982;SDS011;20979;59.850;10.660;2023-09-19T08:39:25;2.03;;;1.07;;
8982;SDS011;20979;59.850;10.660;2023-09-19T08:41:58;2.23;;;0.93;;
8982;SDS011;20979;59.850;10.660;2023-09-19T08:51:10;1.87;;;0.80;;
8982;SDS011;20979;59.850;10.660;2023-09-19T08:53:42;1.20;;;0.80;;
8982;SDS011;20979;59.850;10.660;2023-09-19T08:56:14;2.50;;;0.80;;
8982;SDS011;20979;59.850;10.660;2023-09-19T08:58:46;1.57;;;0.87;;
8982;SDS011;20979;59.850;10.660;2023-09-19T09:01:25;0.90;;;0.60;;
8982;SDS011;20979;59.850;10.660;2023-09-19T09:04:11;3.40;;;0.97;;
8982;SDS011;20979;59.850;10.660;2023-09-19T09:06:54;2.47;;;0.67;;
8982;SDS011;20979;59.850;10.660;2023-09-19T09:09:23;2.37;;;0.87;;
8982;SDS011;20979;59.850;10.660;2023-09-19T09:11:51;1.43;;;0.83;;
8982;SDS011;20979;59.850;10.660;2023-09-19T09:14:20;1.60;;;0.60;;
8982;SDS011;20979;59.850;10.660;2023-09-19T09:16:49;1.30;;;0.70;;
8982;SDS011;20979;59.850;10.660;2023-09-19T09:22:12;0.63;;;0.57;;
8982;SDS011;20979;59.850;10.660;2023-09-19T09:24:50;0.50;;;0.40;;
8982;SDS011;20979;59.850;10.660;2023-09-19T09:30:40;0.83;;;0.33;;
8982;SDS011;20979;59.850;10.660;2023-09-19T09:33:08;0.90;;;0.40;;
8982;SDS011;20979;59.850;10.660;2023-09-19T09:35:37;0.50;;;0.40;;
8982;SDS011;20979;59.850;10.660;2023-09-19T09:41:37;0.50;;;0.50;;
8982;SDS011;20979;59.850;10.660;2023-09-19T09:44:11;0.70;;;0.37;;
8982;SDS011;20979;59.850;10.660;2023-09-19T09:46:47;0.73;;;0.60;;
8982;SDS011;20979;59.850;10.660;2023-09-19T09:49:56;1.40;;;0.50;;
8982;SDS011;20979;59.850;10.660;2023-09-19T09:58:38;0.50;;;0.40;;
8982;SDS011;20979;59.850;10.660;2023-09-19T10:01:21;0.60;;;0.40;;
8982;SDS011;20979;59.850;10.660;2023-09-19T10:03:59;1.17;;;0.40;;
8982;SDS011;20979;59.850;10.660;2023-09-19T10:06:40;0.30;;;0.30;;
8982;SDS011;20979;59.850;10.660;2023-09-19T10:09:12;0.50;;;0.50;;
8982;SDS011;20979;59.850;10.660;2023-09-19T10:12:00;0.50;;;0.20;;
8982;SDS011;20979;59.850;10.660;2023-09-19T10:17:47;0.43;;;0.40;;
8982;SDS011;20979;59.850;10.660;2023-09-19T10:20:17;0.90;;;0.50;;
8982;SDS011;20979;59.850;10.660;2023-09-19T10:25:43;2.37;;;0.30;;
8982;SDS011;20979;59.850;10.660;2023-09-19T10:28:26;0.50;;;0.20;;
8982;SDS011;20979;59.850;10.660;2023-09-19T10:31:01;0.20;;;0.20;;
8982;SDS011;20979;59.850;10.660;2023-09-19T10:33:37;0.20;;;0.20;;
8982;SDS011;20979;59.850;10.660;2023-09-19T10:36:08;0.20;;;0.20;;
8982;SDS011;20979;59.850;10.660;2023-09-19T10:38:51;0.93;;;0.13;;
8982;SDS011;20979;59.850;10.660;2023-09-19T10:41:49;0.53;;;0.30;;
8982;SDS011;20979;59.850;10.660;2023-09-19T10:47:37;0.30;;;0.30;;
8982;SDS011;20979;59.850;10.660;2023-09-19T10:50:21;0.20;;;0.20;;
8982;SDS011;20979;59.850;10.660;2023-09-19T10:53:05;0.20;;;0.20;;
8982;SDS011;20979;59.850;10.660;2023-09-19T10:55:51;0.60;;;0.33;;
8982;SDS011;20979;59.850;10.660;2023-09-19T10:58:51;0.20;;;0.20;;
8982;SDS011;20979;59.850;10.660;2023-09-19T11:01:40;0.23;;;0.23;;
8982;SDS011;20979;59.850;10.660;2023-09-19T11:04:35;1.53;;;0.30;;
8982;SDS011;20979;59.850;10.660;2023-09-19T11:07:22;0.53;;;0.30;;
8982;SDS011;20979;59.850;10.660;2023-09-19T11:13:08;0.50;;;0.50;;
8982;SDS011;20979;59.850;10.660;2023-09-19T11:16:09;1.60;;;0.50;;
8982;SDS011;20979;59.850;10.660;2023-09-19T11:18:59;0.40;;;0.40;;
8982;SDS011;20979;59.850;10.660;2023-09-19T11:21:54;0.40;;;0.40;;
8982;SDS011;20979;59.850;10.660;2023-09-19T11:24:33;1.00;;;0.50;;
8982;SDS011;20979;59.850;10.660;2023-09-19T11:27:17;0.80;;;0.50;;
8982;SDS011;20979;59.850;10.660;2023-09-19T11:30:25;0.50;;;0.40;;
8982;SDS011;20979;59.850;10.660;2023-09-19T11:33:41;1.37;;;0.50;;
8982;SDS011;20979;59.850;10.660;2023-09-19T11:36:26;0.87;;;0.33;;
8982;SDS011;20979;59.850;10.660;2023-09-19T11:39:06;0.80;;;0.60;;
8982;SDS011;20979;59.850;10.660;2023-09-19T11:44:58;1.13;;;0.60;;
8982;SDS011;20979;59.850;10.660;2023-09-19T11:47:43;1.67;;;0.90;;
8982;SDS011;20979;59.850;10.660;2023-09-19T11:50:27;1.60;;;0.80;;
8982;SDS011;20979;59.850;10.660;2023-09-19T11:52:58;1.00;;;0.70;;
8982;SDS011;20979;59.850;10.660;2023-09-19T11:58:32;1.00;;;0.83;;
8982;SDS011;20979;59.850;10.660;2023-09-19T12:01:09;0.80;;;0.80;;
8982;SDS011;20979;59.850;10.660;2023-09-19T12:03:54;1.37;;;0.90;;
8982;SDS011;20979;59.850;10.660;2023-09-19T12:06:38;2.97;;;0.80;;
8982;SDS011;20979;59.850;10.660;2023-09-19T12:09:37;1.63;;;1.00;;
8982;SDS011;20979;59.850;10.660;2023-09-19T12:12:08;1.00;;;0.73;;
8982;SDS011;20979;59.850;10.660;2023-09-19T12:14:58;1.93;;;1.07;;
8982;SDS011;20979;59.850;10.660;2023-09-19T12:23:34;0.93;;;0.77;;
8982;SDS011;20979;59.850;10.660;2023-09-19T12:26:11;1.63;;;0.83;;
8982;SDS011;20979;59.850;10.660;2023-09-19T12:28:47;0.73;;;0.50;;
8982;SDS011;20979;59.850;10.660;2023-09-19T12:31:27;1.63;;;0.77;;
8982;SDS011;20979;59.850;10.660;2023-09-19T12:34:01;0.73;;;0.50;;
8982;SDS011;20979;59.850;10.660;2023-09-19T12:36:30;1.20;;;0.80;;
8982;SDS011;20979;59.850;10.660;2023-09-19T12:39:21;2.27;;;0.90;;
8982;SDS011;20979;59.850;10.660;2023-09-19T12:41:57;3.13;;;0.90;;
8982;SDS011;20979;59.850;10.660;2023-09-19T12:44:37;0.97;;;0.60;;
8982;SDS011;20979;59.850;10.660;2023-09-19T12:47:18;0.87;;;0.70;;
8982;SDS011;20979;59.850;10.660;2023-09-19T12:50:11;1.77;;;1.03;;
8982;SDS011;20979;59.850;10.660;2023-09-19T12:52:53;1.03;;;0.70;;
8982;SDS011;20979;59.850;10.660;2023-09-19T12:55:28;1.03;;;0.60;;
8982;SDS011;20979;59.850;10.660;2023-09-19T12:58:47;1.33;;;1.00;;
8982;SDS011;20979;59.850;10.660;2023-09-19T13:01:20;1.13;;;1.00;;
8982;SDS011;20979;59.850;10.660;2023-09-19T13:04:10;1.47;;;0.90;;
8982;SDS011;20979;59.850;10.660;2023-09-19T13:06:43;1.10;;;0.90;;
8982;SDS011;20979;59.850;10.660;2023-09-19T13:09:33;1.53;;;0.90;;
8982;SDS011;20979;59.850;10.660;2023-09-19T13:14:45;2.33;;;1.20;;
8982;SDS011;20979;59.850;10.660;2023-09-19T13:17:21;1.13;;;1.03;;
8982;SDS011;20979;59.850;10.660;2023-09-19T13:20:07;1.13;;;0.97;;
8982;SDS011;20979;59.850;10.660;2023-09-19T13:25:56;2.93;;;1.30;;
8982;SDS011;20979;59.850;10.660;2023-09-19T13:28:32;2.23;;;1.30;;
8982;SDS011;20979;59.850;10.660;2023-09-19T13:31:05;2.67;;;1.43;;
8982;SDS011;20979;59.850;10.660;2023-09-19T13:33:36;2.37;;;1.27;;
8982;SDS011;20979;59.850;10.660;2023-09-19T13:36:38;1.27;;;1.03;;
8982;SDS011;20979;59.850;10.660;2023-09-19T13:39:07;5.87;;;1.57;;
8982;SDS011;20979;59.850;10.660;2023-09-19T13:41:38;2.63;;;1.00;;
8982;SDS011;20979;59.850;10.660;2023-09-19T13:44:07;2.63;;;1.37;;
8982;SDS011;20979;59.850;10.660;2023-09-19T13:46:40;1.83;;;1.17;;
8982;SDS011;20979;59.850;10.660;2023-09-19T13:49:15;2.00;;;1.00;;
8982;SDS011;20979;59.850;10.660;2023-09-19T13:51:59;1.33;;;1.00;;
8982;SDS011;20979;59.850;10.660;2023-09-19T13:54:38;5.00;;;1.20;;
8982;SDS011;20979;59.850;10.660;2023-09-19T13:57:30;1.40;;;1.00;;
8982;SDS011;20979;59.850;10.660;2023-09-19T14:00:00;2.07;;;1.60;;
8982;SDS011;20979;59.850;10.660;2023-09-19T14:02:40;2.17;;;1.23;;
8982;SDS011;20979;59.850;10.660;2023-09-19T14:05:16;1.80;;;0.93;;
8982;SDS011;20979;59.850;10.660;2023-09-19T14:07:58;1.67;;;1.20;;
8982;SDS011;20979;59.850;10.660;2023-09-19T14:10:55;1.97;;;1.10;;
8982;SDS011;20979;59.850;10.660;2023-09-19T14:13:39;1.00;;;0.90;;
8982;SDS011;20979;59.850;10.660;2023-09-19T14:16:13;1.80;;;1.17;;
8982;SDS011;20979;59.850;10.660;2023-09-19T14:18:53;1.57;;;0.70;;
8982;SDS011;20979;59.850;10.660;2023-09-19T14:21:30;2.67;;;0.97;;
8982;SDS011;20979;59.850;10.660;2023-09-19T14:23:57;1.30;;;0.90;;
8982;SDS011;20979;59.850;10.660;2023-09-19T14:26:25;0.80;;;0.63;;
8982;SDS011;20979;59.850;10.660;2023-09-19T14:29:00;2.40;;;0.90;;
8982;SDS011;20979;59.850;10.660;2023-09-19T14:31:37;2.03;;;0.80;;
8982;SDS011;20979;59.850;10.660;2023-09-19T14:34:06;1.80;;;0.70;;
8982;SDS011;20979;59.850;10.660;2023-09-19T14:36:35;0.70;;;0.50;;
8982;SDS011;20979;59.850;10.660;2023-09-19T14:39:06;1.03;;;0.50;;
8982;SDS011;20979;59.850;10.660;2023-09-19T14:41:54;0.60;;;0.53;;
8982;SDS011;20979;59.850;10.660;2023-09-19T14:44:34;1.63;;;0.67;;
8982;SDS011;20979;59.850;10.660;2023-09-19T14:53:03;0.93;;;0.70;;
8982;SDS011;20979;59.850;10.660;2023-09-19T14:55:50;2.03;;;0.80;;
8982;SDS011;20979;59.850;10.660;2023-09-19T14:58:19;1.43;;;0.57;;
8982;SDS011;20979;59.850;10.660;2023-09-19T15:00:48;0.80;;;0.80;;
8982;SDS011;20979;59.850;10.660;2023-09-19T15:03:20;2.50;;;0.50;;
8982;SDS011;20979;59.850;10.660;2023-09-19T15:05:59;0.97;;;0.73;;
8982;SDS011;20979;59.850;10.660;2023-09-19T15:08:45;1.47;;;0.63;;
8982;SDS011;20979;59.850;10.660;2023-09-19T15:11:13;0.60;;;0.60;;
8982;SDS011;20979;59.850;10.660;2023-09-19T15:13:44;0.73;;;0.50;;
8982;SDS011;20979;59.850;10.660;2023-09-19T15:16:11;1.00;;;0.50;;
8982;SDS011;20979;59.850;10.660;2023-09-19T15:18:46;1.03;;;0.60;;
8982;SDS011;20979;59.850;10.660;2023-09-19T15:21:17;1.13;;;0.60;;
8982;SDS011;20979;59.850;10.660;2023-09-19T15:23:46;0.90;;;0.50;;
8982;SDS011;20979;59.850;10.660;2023-09-19T15:26:23;0.30;;;0.30;;
8982;SDS011;20979;59.850;10.660;2023-09-19T15:28:50;0.90;;;0.50;;
8982;SDS011;20979;59.850;10.660;2023-09-19T15:31:19;0.70;;;0.70;;
8982;SDS011;20979;59.850;10.660;2023-09-19T15:33:47;0.60;;;0.60;;
8982;SDS011;20979;59.850;10.660;2023-09-19T15:36:19;0.80;;;0.63;;
8982;SDS011;20979;59.850;10.660;2023-09-19T15:39:02;0.57;;;0.57;;
8982;SDS011;20979;59.850;10.660;2023-09-19T15:41:32;0.57;;;0.40;;
8982;SDS011;20979;59.850;10.660;2023-09-19T15:44:02;0.67;;;0.50;;
8982;SDS011;20979;59.850;10.660;2023-09-19T15:46:33;2.00;;;0.73;;
8982;SDS011;20979;59.850;10.660;2023-09-19T15:49:02;0.87;;;0.83;;
8982;SDS011;20979;59.850;10.660;2023-09-19T15:51:30;2.90;;;1.03;;
8982;SDS011;20979;59.850;10.660;2023-09-19T15:53:58;0.93;;;0.63;;
8982;SDS011;20979;59.850;10.660;2023-09-19T15:56:29;0.63;;;0.60;;
8982;SDS011;20979;59.850;10.660;2023-09-19T15:58:57;0.67;;;0.60;;
8982;SDS011;20979;59.850;10.660;2023-09-19T16:01:34;1.30;;;0.80;;
8982;SDS011;20979;59.850;10.660;2023-09-19T16:04:01;1.20;;;0.53;;
8982;SDS011;20979;59.850;10.660;2023-09-19T16:06:30;1.20;;;0.77;;
8982;SDS011;20979;59.850;10.660;2023-09-19T16:10:00;0.87;;;0.60;;
8982;SDS011;20979;59.850;10.660;2023-09-19T16:11:59;1.03;;;0.80;;
8982;SDS011;20979;59.850;10.660;2023-09-19T16:14:28;1.03;;;0.70;;
8982;SDS011;20979;59.850;10.660;2023-09-19T16:16:56;1.27;;;0.80;;
8982;SDS011;20979;59.850;10.660;2023-09-19T16:19:28;2.10;;;0.80;;
8982;SDS011;20979;59.850;10.660;2023-09-19T16:22:31;1.00;;;0.90;;
8982;SDS011;20979;59.850;10.660;2023-09-19T16:24:59;1.63;;;0.70;;
8982;SDS011;20979;59.850;10.660;2023-09-19T16:27:29;1.70;;;0.77;;
8982;SDS011;20979;59.850;10.660;2023-09-19T16:32:56;1.23;;;0.80;;
8982;SDS011;20979;59.850;10.660;2023-09-19T16:35:44;1.40;;;0.90;;
8982;SDS011;20979;59.850;10.660;2023-09-19T16:38:20;1.47;;;0.90;;
8982;SDS011;20979;59.850;10.660;2023-09-19T16:41:05;1.20;;;0.83;;
8982;SDS011;20979;59.850;10.660;2023-09-19T16:43:34;2.43;;;0.90;;
8982;SDS011;20979;59.850;10.660;2023-09-19T16:46:02;0.83;;;0.80;;
8982;SDS011;20979;59.850;10.660;2023-09-19T16:48:34;1.80;;;1.10;;
8982;SDS011;20979;59.850;10.660;2023-09-19T16:51:08;1.43;;;1.00;;
8982;SDS011;20979;59.850;10.660;2023-09-19T16:53:39;2.87;;;1.00;;
8982;SDS011;20979;59.850;10.660;2023-09-19T16:56:07;1.63;;;0.80;;
8982;SDS011;20979;59.850;10.660;2023-09-19T16:58:37;1.57;;;0.70;;
8982;SDS011;20979;59.850;10.660;2023-09-19T17:01:06;1.00;;;0.80;;
8982;SDS011;20979;59.850;10.660;2023-09-19T17:03:44;1.93;;;0.90;;
8982;SDS011;20979;59.850;10.660;2023-09-19T17:06:16;1.97;;;0.97;;
8982;SDS011;20979;59.850;10.660;2023-09-19T17:08:50;2.10;;;1.00;;
8982;SDS011;20979;59.850;10.660;2023-09-19T17:11:18;1.23;;;0.90;;
8982;SDS011;20979;59.850;10.660;2023-09-19T17:13:47;1.07;;;0.80;;
8982;SDS011;20979;59.850;10.660;2023-09-19T17:16:18;0.90;;;0.60;;
8982;SDS011;20979;59.850;10.660;2023-09-19T17:18:49;3.90;;;1.00;;
8982;SDS011;20979;59.850;10.660;2023-09-19T17:24:21;0.80;;;0.70;;